AXM745 VQPR-VNKT
Flight info
| Callsign | AXM745 |
|---|---|
| Flight time | 0h 59m |
| Altitude | 36000 |
| Route | PRO G348 KIMTI KMTI2R |
| Aircraft | A20N/M-SDE2E3FGHIRWXY/LB1 |
Departure
| Time | 2025-12-29 15:22 |
|---|---|
| Airport | Paro International Airport (VQPR) |
Arrival
| Time | 2025-12-29 16:21 |
|---|---|
| Airport | Tribhuvan International Airport (VNKT) |
| Time | Latitude | Longitude | Altitude | Speed | Heading |
|---|---|---|---|---|---|
| 2025-12-29 15:05 | 27.40557 | 89.42134 | 7350 ft | 0 kts | 240° |
| 2025-12-29 15:12 | 27.40558 | 89.42137 | 7356 ft | 0 kts | 240° |
| 2025-12-29 15:13 | 27.40561 | 89.42141 | 7356 ft | 0 kts | 240° |
| 2025-12-29 15:13 | 27.40562 | 89.42143 | 7356 ft | 0 kts | 240° |
| 2025-12-29 15:14 | 27.40590 | 89.42161 | 7354 ft | 3 kts | 199° |
| 2025-12-29 15:15 | 27.40642 | 89.42164 | 7355 ft | 4 kts | 188° |
| 2025-12-29 15:15 | 27.40665 | 89.42172 | 7356 ft | 0 kts | 243° |
| 2025-12-29 15:18 | 27.40692 | 89.42129 | 7358 ft | 5 kts | 329° |
| 2025-12-29 15:18 | 27.40809 | 89.42086 | 7356 ft | 4 kts | 10° |
| 2025-12-29 15:19 | 27.40839 | 89.42134 | 7360 ft | 4 kts | 105° |
| 2025-12-29 15:19 | 27.40823 | 89.42150 | 7362 ft | 0 kts | 150° |
| 2025-12-29 15:20 | 27.40774 | 89.42182 | 7359 ft | 32 kts | 149° |
| 2025-12-29 15:20 | 27.39724 | 89.42853 | 7358 ft | 140 kts | 150° |
| 2025-12-29 15:21 | 27.38325 | 89.44347 | 7978 ft | 149 kts | 102° |
| 2025-12-29 15:21 | 27.37203 | 89.46206 | 8800 ft | 149 kts | 148° |
| 2025-12-29 15:22 | 27.35226 | 89.47317 | 9573 ft | 173 kts | 156° |
| 2025-12-29 15:22 | 27.32799 | 89.48294 | 10368 ft | 202 kts | 165° |
| 2025-12-29 15:23 | 27.29802 | 89.46202 | 12144 ft | 197 kts | 261° |
| 2025-12-29 15:23 | 27.29484 | 89.43077 | 13266 ft | 206 kts | 252° |
| 2025-12-29 15:24 | 27.28827 | 89.41671 | 13859 ft | 209 kts | 234° |
| 2025-12-29 15:24 | 27.26894 | 89.38985 | 14624 ft | 237 kts | 232° |
| 2025-12-29 15:25 | 27.24612 | 89.35881 | 15272 ft | 280 kts | 232° |
| 2025-12-29 15:25 | 27.22010 | 89.32144 | 15772 ft | 327 kts | 234° |
| 2025-12-29 15:26 | 27.17720 | 89.25181 | 16473 ft | 393 kts | 240° |
| 2025-12-29 15:26 | 27.16312 | 89.22499 | 16684 ft | 411 kts | 243° |
| 2025-12-29 15:27 | 27.12111 | 89.13980 | 17038 ft | 391 kts | 243° |
| 2025-12-29 15:27 | 27.09521 | 89.08800 | 18481 ft | 370 kts | 243° |
| 2025-12-29 15:28 | 27.08282 | 89.06343 | 19413 ft | 360 kts | 243° |
| 2025-12-29 15:28 | 27.05874 | 89.01594 | 21485 ft | 338 kts | 244° |
| 2025-12-29 15:29 | 27.03643 | 88.97187 | 23610 ft | 314 kts | 244° |
| 2025-12-29 15:31 | 26.93973 | 88.78566 | 27456 ft | 328 kts | 243° |
| 2025-12-29 15:33 | 26.84957 | 88.62048 | 28761 ft | 380 kts | 243° |
| 2025-12-29 15:35 | 26.78027 | 88.36152 | 30223 ft | 421 kts | 288° |
| 2025-12-29 15:37 | 26.85425 | 88.15105 | 32085 ft | 412 kts | 289° |
| 2025-12-29 15:39 | 26.93775 | 87.91170 | 32075 ft | 411 kts | 289° |
| 2025-12-29 15:41 | 27.02046 | 87.67288 | 32089 ft | 411 kts | 290° |
| 2025-12-29 15:43 | 27.11295 | 87.40405 | 32088 ft | 410 kts | 290° |
| 2025-12-29 15:45 | 27.18464 | 87.19449 | 32096 ft | 411 kts | 290° |
| 2025-12-29 15:47 | 27.26376 | 86.96167 | 29770 ft | 383 kts | 290° |
| 2025-12-29 15:49 | 27.33580 | 86.74863 | 26205 ft | 351 kts | 290° |
| 2025-12-29 15:51 | 27.40506 | 86.54256 | 26116 ft | 352 kts | 290° |
| 2025-12-29 15:52 | 27.45633 | 86.38901 | 24524 ft | 353 kts | 290° |
| 2025-12-29 15:53 | 27.47301 | 86.33730 | 24026 ft | 351 kts | 287° |
| 2025-12-29 15:53 | 27.48031 | 86.28297 | 23476 ft | 352 kts | 271° |
| 2025-12-29 15:53 | 27.47748 | 86.25548 | 23183 ft | 355 kts | 262° |
| 2025-12-29 15:54 | 27.44453 | 86.18021 | 22159 ft | 363 kts | 242° |
| 2025-12-29 15:55 | 27.41633 | 86.13358 | 21375 ft | 356 kts | 242° |
| 2025-12-29 15:55 | 27.37541 | 86.06563 | 20254 ft | 347 kts | 242° |
| 2025-12-29 15:56 | 27.36628 | 86.05043 | 20006 ft | 346 kts | 242° |
| 2025-12-29 15:56 | 27.33950 | 86.00589 | 19296 ft | 345 kts | 242° |
| 2025-12-29 15:57 | 27.31263 | 85.96122 | 18518 ft | 343 kts | 242° |
| 2025-12-29 15:57 | 27.28614 | 85.91709 | 17551 ft | 340 kts | 242° |
| 2025-12-29 15:57 | 27.27288 | 85.89513 | 17068 ft | 339 kts | 241° |
| 2025-12-29 15:58 | 27.23330 | 85.82970 | 15509 ft | 334 kts | 241° |
| 2025-12-29 15:59 | 27.20737 | 85.78680 | 14521 ft | 330 kts | 241° |
| 2025-12-29 15:59 | 27.18183 | 85.74459 | 13503 ft | 327 kts | 241° |
| 2025-12-29 16:00 | 27.15628 | 85.70236 | 12355 ft | 326 kts | 240° |
| 2025-12-29 16:00 | 27.13370 | 85.66036 | 11962 ft | 297 kts | 250° |
| 2025-12-29 16:01 | 27.12135 | 85.61964 | 11959 ft | 259 kts | 262° |
| 2025-12-29 16:01 | 27.11766 | 85.58200 | 11960 ft | 232 kts | 271° |
| 2025-12-29 16:02 | 27.11759 | 85.54252 | 11984 ft | 275 kts | 272° |
| 2025-12-29 16:02 | 27.11766 | 85.47673 | 11969 ft | 282 kts | 272° |
| 2025-12-29 16:03 | 27.11767 | 85.45479 | 11966 ft | 281 kts | 272° |
| 2025-12-29 16:03 | 27.11770 | 85.41109 | 11961 ft | 280 kts | 272° |
| 2025-12-29 16:04 | 27.11776 | 85.36662 | 11973 ft | 288 kts | 273° |
| 2025-12-29 16:04 | 27.12680 | 85.32318 | 11966 ft | 289 kts | 297° |
| 2025-12-29 16:05 | 27.15465 | 85.29064 | 11976 ft | 295 kts | 320° |
| 2025-12-29 16:05 | 27.17168 | 85.27771 | 11977 ft | 296 kts | 322° |
| 2025-12-29 16:06 | 27.22183 | 85.24051 | 11449 ft | 275 kts | 321° |
| 2025-12-29 16:06 | 27.25262 | 85.21743 | 11161 ft | 256 kts | 321° |
| 2025-12-29 16:07 | 27.28272 | 85.19864 | 10892 ft | 245 kts | 333° |
| 2025-12-29 16:07 | 27.31656 | 85.19272 | 10396 ft | 252 kts | 355° |
| 2025-12-29 16:08 | 27.35127 | 85.20236 | 9995 ft | 265 kts | 13° |
| 2025-12-29 16:08 | 27.38606 | 85.21820 | 9978 ft | 274 kts | 15° |
| 2025-12-29 16:09 | 27.42126 | 85.23437 | 9801 ft | 272 kts | 17° |
| 2025-12-29 16:09 | 27.43901 | 85.24154 | 9515 ft | 267 kts | 10° |
| 2025-12-29 16:09 | 27.47236 | 85.24565 | 9102 ft | 249 kts | 354° |
| 2025-12-29 16:10 | 27.52133 | 85.23704 | 8681 ft | 241 kts | 358° |
| 2025-12-29 16:11 | 27.55382 | 85.24680 | 8304 ft | 249 kts | 27° |
| 2025-12-29 16:11 | 27.58076 | 85.27064 | 7609 ft | 246 kts | 42° |
| 2025-12-29 16:12 | 27.60169 | 85.30046 | 7004 ft | 231 kts | 51° |
| 2025-12-29 16:12 | 27.62294 | 85.32306 | 6596 ft | 209 kts | 32° |
| 2025-12-29 16:13 | 27.64849 | 85.33749 | 5632 ft | 204 kts | 21° |
| 2025-12-29 16:13 | 27.67484 | 85.34910 | 4533 ft | 206 kts | 22° |
| 2025-12-29 16:13 | 27.68761 | 85.35493 | 4394 ft | 188 kts | 21° |
| 2025-12-29 16:14 | 27.72604 | 85.36574 | 5830 ft | 208 kts | 350° |
| 2025-12-29 16:15 | 27.74910 | 85.32886 | 5688 ft | 223 kts | 268° |
| 2025-12-29 16:15 | 27.73652 | 85.29606 | 6673 ft | 237 kts | 239° |
| 2025-12-29 16:16 | 27.72785 | 85.28011 | 7065 ft | 237 kts | 236° |
| 2025-12-29 16:16 | 27.70582 | 85.25331 | 6854 ft | 235 kts | 208° |
| 2025-12-29 16:17 | 27.67441 | 85.25024 | 6602 ft | 233 kts | 160° |
| 2025-12-29 16:17 | 27.64734 | 85.26679 | 6384 ft | 206 kts | 147° |
| 2025-12-29 16:17 | 27.63611 | 85.27594 | 6157 ft | 191 kts | 139° |
| 2025-12-29 16:18 | 27.63233 | 85.30949 | 5503 ft | 141 kts | 54° |
| 2025-12-29 16:19 | 27.64699 | 85.32804 | 5277 ft | 153 kts | 42° |
| 2025-12-29 16:19 | 27.66339 | 85.34245 | 4764 ft | 147 kts | 31° |
| 2025-12-29 16:20 | 27.68176 | 85.35230 | 4434 ft | 147 kts | 21° |
| 2025-12-29 16:20 | 27.69633 | 85.35903 | 4399 ft | 63 kts | 22° |
| 2025-12-29 16:21 | 27.69921 | 85.35854 | 4401 ft | 5 kts | 206° |
| 2025-12-29 16:21 | 27.69887 | 85.35848 | 4400 ft | 0 kts | 201° |
| 2025-12-29 16:22 | 27.69876 | 85.35845 | 4400 ft | 6 kts | 188° |
| 2025-12-29 16:23 | 27.69869 | 85.35809 | 4401 ft | 2 kts | 294° |
| 2025-12-29 16:23 | 27.69876 | 85.35790 | 4401 ft | 1 kts | 292° |
| 2025-12-29 16:24 | 27.69878 | 85.35784 | 4401 ft | 0 kts | 291° |